Main page
METAR-TAF:

METAR-TAF

Airports :

Grand Rapids/Itasca County Airport (Gordon Newstrom Field)

Grand Rapids, Minnesota, United States

latitude: 47-13N, longitude: 093-31W, elevation: 413 m

Current weather observation

The report was made 35 minutes ago, at 06:56 UTC
Wind 6 kt from the South
Temperature 4°C
Humidity 41%
Pressure 1013 hPa
Visibility: 16.1 km
Clear sky

METAR: KGPZ 220656Z AUTO 19006KT 10SM CLR 04/M08 A2991 RMK AO2 SLP138 T00441083

Time: 02:31 (07:31 UTC)


TAF: missing

Weather observations and forecasts of more than 4000 airports (METAR and TAF reports).

The available stations are represented by yellow and red dots on the map.

Hover mouse over dot to see the name of the station.

Then click to see weather observations and forecasts.

To change the map : click on the green buttons with a black cross to zoom in, on the green button with a dash to zoom out, or on the green arrows for adjacent maps.


METAR-TAF: